Terminal Aerodrome Forecast
Issued by NWS St Louis, MO

Home | Current Version | Previous Version | Text Only | Print | Product List | Glossary On
Versions: 1 2 3 4 5 6 7 8 9 10 11 12 13 14 15 16 17 18 19 20 21 22 23 24 25 26
000
FTUS43 KLSX 271700 RRA
TAFCOU
TAF
KCOU 271741Z 2718/2818 35012G20KT P6SM BKN050
     FM280000 VRB04KT P6SM BKN120
     FM280600 11006KT P6SM SCT040 OVC080
     FM280900 11006KT 3SM -SN BKN025 OVC060
     FM281300 12010KT P6SM BKN025=

USA.gov is the U.S. government's official web portal to all federal, state and local government web resources and services.